world map with PPT marked

PPT - Airport

This information may not be accurate or current and is not valid for navigation or flight planning. No warranty of fitness for any purpose is made or implied.

flag of French Polynesia

Donate via PayPal

Additional information is available on the NEW Great Circle Mapper

Location
City:  Papeete, Tahiti, Society Islands, French Polynesia
Name:Faa'a
ICAO / IATA:NTAA / PPT

Details
Type:Airport (Aerodrome, Airfield)
Latitude:17°33'24"S (-17.556666)
Longitude:149°36'41"W (-149.611388)
Elevation:7 ft (2 m)
Runways:1
Longest:11220 × 148 ft (3420 × 45 m)

Time
Timezone:UTC+24:08 (DST+26:08)
Local Time:

Weather
METAR:NTAA  202030Z 24005KT 9999 FEW023 27/18 Q1016 NOSIG
TAF:NTAA  201100Z 2012/2118 VRB05KT 9999 FEW023 PROB30 TEMPO 2020/2101 07012KT

Related Locations
Nearby:
Farthest:EDB: 12388 mi / 19937 km
El Debba (Al Dabbah), NO, SD

Find:

   beyond  
but within

Other Information
Maps:
Sources:

  


 


Great Circle Mapper   Great Circle Mapper
Great Circle Mapper FAQ   Great Circle Mapper FAQ
  Karl's Home Page
KLSē   KLSē Home
   GC on Facebook
Airlines of the World   Airlines of the World
Donate via PayPal


Copyright © 2004-2017, Karl L. Swartz. All rights reserved.
All trademarks mentioned herein belong to their respective owners.

Please see credits for attribution and copyright information.

Karl Swartz <karl@kls2.com>
  Powered by FreeBSD
Valid HTML 4.01!
Labeled with ICRA
hCard Microformat
Geo Microformat